createdAt,value
2022-10-22T00:00:53.683Z,15.80
2022-10-22T00:03:35.812Z,15.40
2022-10-22T00:06:03.848Z,16.60
2022-10-22T00:08:31.686Z,14.60
2022-10-22T00:10:59.493Z,16.50
2022-10-22T00:13:27.222Z,18.30
2022-10-22T00:15:54.944Z,18.10
2022-10-22T00:18:22.623Z,16.20
2022-10-22T00:20:50.317Z,14.70
2022-10-22T00:23:18.039Z,14.80
2022-10-22T00:25:45.869Z,15.20
2022-10-22T00:28:15.021Z,16.20
2022-10-22T00:30:42.749Z,18.80
2022-10-22T00:33:10.521Z,20.90
2022-10-22T00:35:38.357Z,16.90
2022-10-22T00:38:06.115Z,17.10
2022-10-22T00:40:33.776Z,15.30
2022-10-22T00:43:01.493Z,16.20
2022-10-22T00:45:29.509Z,15.10
2022-10-22T00:48:04.748Z,19.20
2022-10-22T00:50:57.442Z,15.50
2022-10-22T00:53:31.985Z,16.70
2022-10-22T00:55:59.675Z,17.20
2022-10-22T00:58:29.602Z,16.10
2022-10-22T01:00:57.466Z,15.70
2022-10-22T01:03:25.947Z,17.20
2022-10-22T01:05:58.979Z,18.30
2022-10-22T01:08:55.040Z,17.70
2022-10-22T01:11:46.861Z,18.70
2022-10-22T01:14:43.474Z,15.10
2022-10-22T01:17:41.346Z,14.40
2022-10-22T01:20:17.447Z,15.60
2022-10-22T01:23:38.580Z,14.30
2022-10-22T01:26:37.414Z,16.00
2022-10-22T01:29:20.308Z,16.10
2022-10-22T01:31:55.720Z,14.70
2022-10-22T01:34:23.491Z,13.30
2022-10-22T01:36:51.744Z,14.10
2022-10-22T01:39:20.085Z,14.70
2022-10-22T01:41:47.907Z,15.40
2022-10-22T01:44:26.372Z,14.00
2022-10-22T01:47:26.316Z,13.60
2022-10-22T01:50:30.576Z,13.70
2022-10-22T01:53:17.949Z,13.30
2022-10-22T01:56:14.705Z,13.40
2022-10-22T01:58:52.215Z,14.40
2022-10-22T02:01:36.888Z,13.60
2022-10-22T02:04:34.037Z,12.60
2022-10-22T02:07:06.706Z,15.10
2022-10-22T02:09:34.630Z,12.80
2022-10-22T02:14:39.501Z,16.10
2022-10-22T02:17:09.382Z,15.30
2022-10-22T02:19:44.787Z,16.00
2022-10-22T02:22:12.541Z,15.90
2022-10-22T02:24:40.340Z,14.90
2022-10-22T02:27:36.432Z,17.10
2022-10-22T02:30:25.414Z,16.40
2022-10-22T02:36:18.481Z,16.80
2022-10-22T02:38:46.949Z,14.10
2022-10-22T02:41:16.628Z,14.50
2022-10-22T02:43:49.229Z,16.10
2022-10-22T02:46:17.011Z,16.20
2022-10-22T02:48:44.735Z,14.60
2022-10-22T02:51:12.565Z,14.40
2022-10-22T02:53:40.504Z,14.10
2022-10-22T02:56:08.715Z,12.90
2022-10-22T02:58:36.464Z,13.20
2022-10-22T03:01:04.363Z,15.30
2022-10-22T03:03:32.267Z,13.90
2022-10-22T03:06:00.028Z,15.00
2022-10-22T03:08:27.895Z,15.80
2022-10-22T03:10:55.602Z,14.80
2022-10-22T03:13:23.320Z,15.10
2022-10-22T03:15:51.346Z,14.10
2022-10-22T03:18:19.163Z,15.40
2022-10-22T03:20:46.840Z,14.40
2022-10-22T03:23:17.432Z,15.90
2022-10-22T03:25:45.340Z,13.40
2022-10-22T03:28:13.587Z,14.80
2022-10-22T03:30:41.257Z,14.10
2022-10-22T03:33:09.016Z,13.40
2022-10-22T03:35:45.704Z,15.80
2022-10-22T03:38:13.498Z,14.80
2022-10-22T03:40:42.670Z,14.20
2022-10-22T03:43:10.354Z,13.80
2022-10-22T03:48:10.698Z,12.90
2022-10-22T03:50:38.519Z,14.40
2022-10-22T03:53:07.306Z,15.20
2022-10-22T03:55:35.001Z,13.30
2022-10-22T03:58:02.829Z,13.40
2022-10-22T04:00:30.577Z,13.60
2022-10-22T04:02:58.365Z,12.00
2022-10-22T04:05:26.124Z,12.80
2022-10-22T04:07:53.855Z,15.50
2022-10-22T04:10:21.753Z,13.20
2022-10-22T04:12:49.695Z,11.90
2022-10-22T04:15:17.944Z,12.40
2022-10-22T04:17:45.768Z,12.00
2022-10-22T04:20:13.568Z,12.20
2022-10-22T04:22:41.394Z,14.60
2022-10-22T04:25:09.802Z,14.60
2022-10-22T04:27:37.792Z,13.50
2022-10-22T04:30:07.039Z,14.40
2022-10-22T04:32:34.786Z,12.80
2022-10-22T04:35:02.686Z,13.20
2022-10-22T04:37:30.437Z,14.30
2022-10-22T04:39:58.448Z,12.40
2022-10-22T04:42:26.373Z,13.50
2022-10-22T04:44:54.135Z,13.70
2022-10-22T04:47:22.036Z,12.40
2022-10-22T04:49:49.712Z,13.70
2022-10-22T04:52:17.409Z,12.80
2022-10-22T04:54:45.208Z,12.50
2022-10-22T04:57:14.555Z,13.00
2022-10-22T04:59:42.459Z,12.90
2022-10-22T05:02:10.323Z,14.00
2022-10-22T05:04:38.019Z,14.40
2022-10-22T05:07:05.852Z,11.00
2022-10-22T05:09:33.650Z,15.10
2022-10-22T05:12:01.385Z,14.20
2022-10-22T05:14:29.095Z,13.90
2022-10-22T05:16:56.868Z,15.00
2022-10-22T05:19:31.750Z,17.20
2022-10-22T05:22:01.650Z,13.90
2022-10-22T05:24:30.336Z,15.10
2022-10-22T05:26:59.115Z,14.40
2022-10-22T05:29:27.082Z,14.00
2022-10-22T05:31:54.993Z,12.50
2022-10-22T05:34:23.023Z,17.10
2022-10-22T05:36:50.842Z,13.60
2022-10-22T05:39:18.533Z,14.10
2022-10-22T05:41:46.237Z,13.90
2022-10-22T05:44:14.085Z,14.10
2022-10-22T05:46:43.533Z,13.00
2022-10-22T05:49:16.274Z,16.40
2022-10-22T05:51:44.105Z,14.30
2022-10-22T05:54:18.599Z,14.40
2022-10-22T05:56:46.491Z,11.40
2022-10-22T05:59:14.224Z,14.40
2022-10-22T06:01:42.351Z,14.10
2022-10-22T06:04:12.178Z,14.30
2022-10-22T06:06:44.167Z,12.70
2022-10-22T06:09:26.543Z,19.20
2022-10-22T06:11:55.222Z,13.60
2022-10-22T06:14:23.398Z,14.50
2022-10-22T06:16:51.406Z,13.50
2022-10-22T06:19:21.404Z,14.10
2022-10-22T06:21:49.304Z,14.00
2022-10-22T06:24:17.102Z,13.50
2022-10-22T06:26:46.084Z,15.50
2022-10-22T06:29:14.077Z,12.40
2022-10-22T06:31:41.890Z,15.80
2022-10-22T06:34:13.766Z,15.90
2022-10-22T06:36:42.950Z,17.30
2022-10-22T06:39:12.595Z,17.20
2022-10-22T06:41:40.500Z,13.80
2022-10-22T06:44:09.232Z,14.40
2022-10-22T06:46:40.073Z,16.00
2022-10-22T06:49:12.915Z,12.70
2022-10-22T06:51:40.745Z,13.60
2022-10-22T06:54:08.505Z,13.50
2022-10-22T06:56:36.311Z,13.00
2022-10-22T06:59:04.110Z,15.70
2022-10-22T07:01:33.725Z,15.30
2022-10-22T07:04:01.969Z,16.90
2022-10-22T07:06:29.735Z,16.70
2022-10-22T07:08:58.749Z,16.70
2022-10-22T07:11:33.502Z,16.40
2022-10-22T07:14:01.369Z,17.20
2022-10-22T07:16:31.295Z,19.60
2022-10-22T07:19:01.785Z,19.00
2022-10-22T07:21:30.087Z,17.40
2022-10-22T07:23:59.343Z,18.70
2022-10-22T07:26:30.666Z,15.70
2022-10-22T07:29:00.601Z,17.60
2022-10-22T07:31:28.634Z,18.30
2022-10-22T07:33:57.296Z,17.00
2022-10-22T07:36:25.078Z,13.80
2022-10-22T07:38:57.686Z,17.60
2022-10-22T07:41:26.443Z,13.80
2022-10-22T07:43:54.617Z,13.80
2022-10-22T07:46:22.396Z,15.70
2022-10-22T07:48:50.204Z,17.50
2022-10-22T07:51:17.919Z,16.30
2022-10-22T07:53:45.868Z,16.40
2022-10-22T07:56:14.191Z,15.30
2022-10-22T07:58:41.862Z,15.40
2022-10-22T08:01:09.741Z,17.40
2022-10-22T08:03:37.750Z,17.80
2022-10-22T08:06:05.917Z,19.20
2022-10-22T08:08:34.914Z,19.00
2022-10-22T08:11:02.845Z,18.80
2022-10-22T08:13:30.928Z,13.80
2022-10-22T08:16:00.043Z,14.50
2022-10-22T08:18:28.343Z,13.90
2022-10-22T08:20:56.284Z,14.70
2022-10-22T08:23:26.121Z,18.80
2022-10-22T08:25:57.523Z,12.80
2022-10-22T08:28:26.073Z,14.50
2022-10-22T08:30:53.939Z,15.60
2022-10-22T08:33:21.708Z,17.70
2022-10-22T08:35:50.777Z,21.30
2022-10-22T08:38:18.702Z,17.10
2022-10-22T08:40:53.135Z,17.40
2022-10-22T08:43:59.351Z,16.40
2022-10-22T08:47:24.106Z,16.00
2022-10-22T08:49:53.480Z,13.30
2022-10-22T08:52:21.153Z,15.10
2022-10-22T08:54:54.152Z,16.20
2022-10-22T08:57:40.158Z,18.40
2022-10-22T09:00:15.601Z,22.20
2022-10-22T09:03:27.404Z,23.20
2022-10-22T09:06:21.396Z,18.20
2022-10-22T09:08:49.464Z,16.60
2022-10-22T09:11:38.004Z,15.90
2022-10-22T09:14:06.093Z,19.10
2022-10-22T09:16:43.551Z,17.20
2022-10-22T09:19:33.156Z,18.30
2022-10-22T09:22:25.285Z,17.20
2022-10-22T09:24:59.122Z,16.50
2022-10-22T09:27:31.649Z,18.30
2022-10-22T09:30:00.876Z,19.30
2022-10-22T09:32:28.809Z,17.70
2022-10-22T09:34:58.430Z,14.80
2022-10-22T09:37:28.699Z,18.70
2022-10-22T09:39:57.542Z,16.00
2022-10-22T09:42:25.427Z,16.00
2022-10-22T09:44:58.480Z,17.70
2022-10-22T09:51:24.162Z,20.90
2022-10-22T09:54:01.111Z,18.00
2022-10-22T09:56:36.168Z,17.60
2022-10-22T09:59:04.516Z,19.60
2022-10-22T10:01:36.581Z,19.10
2022-10-22T10:04:09.574Z,16.80
2022-10-22T10:06:40.612Z,18.20
2022-10-22T10:09:20.086Z,16.70
2022-10-22T10:12:09.510Z,23.40
2022-10-22T10:14:46.621Z,22.40
2022-10-22T10:17:31.129Z,18.70
2022-10-22T10:20:46.346Z,19.70
2022-10-22T10:23:42.054Z,18.60
2022-10-22T10:26:47.834Z,19.90
2022-10-22T10:32:34.753Z,19.70
2022-10-22T10:35:30.973Z,14.80
2022-10-22T10:38:27.324Z,18.00
2022-10-22T10:41:10.537Z,17.10
2022-10-22T10:44:15.175Z,18.90
2022-10-22T10:47:27.103Z,18.10
2022-10-22T10:50:00.150Z,17.70
2022-10-22T10:52:41.050Z,17.70
2022-10-22T10:55:31.080Z,17.00
2022-10-22T10:58:12.709Z,18.70
2022-10-22T11:00:54.095Z,17.60
2022-10-22T11:03:36.235Z,20.00
2022-10-22T11:06:09.402Z,22.30
2022-10-22T11:09:18.775Z,23.10
2022-10-22T11:11:54.122Z,25.90
2022-10-22T11:15:03.820Z,23.90
2022-10-22T11:17:41.507Z,23.20
2022-10-22T11:20:41.438Z,23.80
2022-10-22T11:23:20.847Z,24.20
2022-10-22T11:25:50.593Z,24.90
2022-10-22T11:28:27.333Z,23.60
2022-10-22T11:31:25.610Z,27.10
2022-10-22T11:34:31.967Z,17.50
2022-10-22T11:36:59.334Z,21.90
2022-10-22T11:39:49.421Z,22.50
2022-10-22T11:42:23.140Z,21.60
2022-10-22T11:45:28.731Z,20.10
2022-10-22T11:47:56.644Z,18.80
2022-10-22T11:50:56.769Z,23.30
2022-10-22T11:53:36.245Z,21.00
2022-10-22T11:56:07.243Z,22.70
2022-10-22T11:58:39.434Z,21.10
2022-10-22T12:01:07.188Z,21.70
2022-10-22T12:03:34.931Z,22.20
2022-10-22T12:06:20.882Z,22.80
2022-10-22T12:08:48.813Z,20.40
2022-10-22T12:11:36.731Z,23.10
2022-10-22T12:14:28.180Z,20.70
2022-10-22T12:16:58.186Z,22.10
2022-10-22T12:19:40.263Z,23.00
2022-10-22T12:22:26.248Z,20.40
2022-10-22T12:24:57.334Z,21.50
2022-10-22T12:27:34.898Z,21.00
2022-10-22T12:30:16.910Z,22.00
2022-10-22T12:32:44.849Z,22.10
2022-10-22T12:35:20.693Z,20.80
2022-10-22T12:37:52.919Z,20.00
2022-10-22T12:40:26.691Z,23.80
2022-10-22T12:43:03.154Z,21.20
2022-10-22T12:45:32.954Z,18.80
2022-10-22T12:48:03.656Z,22.70
2022-10-22T12:50:40.462Z,20.40
2022-10-22T12:53:40.010Z,22.40
2022-10-22T12:56:13.660Z,20.40
2022-10-22T12:58:49.163Z,24.20
2022-10-22T13:01:17.787Z,21.70
2022-10-22T13:03:51.454Z,21.50
2022-10-22T13:06:19.189Z,23.00
2022-10-22T13:09:04.116Z,22.10
2022-10-22T13:12:03.241Z,23.90
2022-10-22T13:14:34.278Z,23.10
2022-10-22T13:17:20.343Z,21.40
2022-10-22T13:19:53.923Z,21.40
2022-10-22T13:22:34.909Z,22.80
2022-10-22T13:25:14.858Z,21.70
2022-10-22T13:27:57.044Z,22.30
2022-10-22T13:30:29.837Z,22.50
2022-10-22T13:33:28.416Z,20.50
2022-10-22T13:35:56.723Z,22.00
2022-10-22T13:38:25.952Z,24.40
2022-10-22T13:40:54.014Z,24.20
2022-10-22T13:43:21.744Z,21.30
2022-10-22T13:45:53.445Z,24.40
2022-10-22T13:48:22.226Z,24.70
2022-10-22T13:50:50.601Z,23.70
2022-10-22T13:53:22.149Z,21.40
2022-10-22T13:55:52.880Z,21.90
2022-10-22T13:58:24.727Z,23.30
2022-10-22T14:00:58.021Z,22.60
2022-10-22T14:03:33.655Z,25.00
2022-10-22T14:06:01.693Z,26.90
2022-10-22T14:08:29.517Z,24.00
2022-10-22T14:10:57.439Z,26.20
2022-10-22T14:13:25.776Z,25.10
2022-10-22T14:15:53.525Z,26.90
2022-10-22T14:18:28.379Z,25.30
2022-10-22T14:20:58.064Z,25.70
2022-10-22T14:23:29.016Z,27.00
2022-10-22T14:25:57.590Z,22.80
2022-10-22T14:28:25.363Z,21.70
2022-10-22T14:30:53.864Z,22.60
2022-10-22T14:33:32.064Z,23.00
2022-10-22T14:36:00.847Z,21.80
2022-10-22T14:38:29.211Z,23.80
2022-10-22T14:40:57.721Z,26.20
2022-10-22T14:43:28.068Z,23.70
2022-10-22T14:45:56.143Z,21.40
2022-10-22T14:48:24.673Z,24.40
2022-10-22T14:50:52.545Z,22.00
2022-10-22T14:53:20.542Z,22.80
2022-10-22T14:55:49.259Z,25.90
2022-10-22T14:58:17.092Z,28.80
2022-10-22T15:00:44.840Z,28.90
2022-10-22T15:03:12.787Z,26.30
2022-10-22T15:05:45.158Z,32.40
2022-10-22T15:08:14.243Z,31.00
2022-10-22T15:10:42.223Z,27.90
2022-10-22T15:13:10.029Z,28.50
2022-10-22T15:15:41.380Z,25.70
2022-10-22T15:18:09.197Z,24.00
2022-10-22T15:20:36.964Z,25.70
2022-10-22T15:23:04.928Z,28.70
2022-10-22T15:25:32.669Z,29.90
2022-10-22T15:28:02.030Z,29.50
2022-10-22T15:30:35.428Z,31.40
2022-10-22T15:33:03.262Z,29.50
2022-10-22T15:35:31.009Z,31.00
2022-10-22T15:37:58.817Z,26.70
2022-10-22T15:40:26.605Z,30.40
2022-10-22T15:42:54.338Z,27.20
2022-10-22T15:45:24.239Z,30.20
2022-10-22T15:47:52.037Z,30.90
2022-10-22T15:50:19.860Z,37.30
2022-10-22T15:52:47.626Z,40.50
2022-10-22T15:55:16.039Z,39.80
2022-10-22T15:57:44.468Z,32.10
2022-10-22T16:00:13.493Z,34.10
2022-10-22T16:02:41.095Z,31.40
2022-10-22T16:05:09.972Z,28.10
2022-10-22T16:07:37.964Z,29.80
2022-10-22T16:10:07.879Z,32.50
2022-10-22T16:12:36.704Z,27.10
2022-10-22T16:15:05.581Z,30.90
2022-10-22T16:17:33.489Z,26.40
2022-10-22T16:20:01.537Z,28.90
2022-10-22T16:22:29.599Z,28.30
2022-10-22T16:24:57.497Z,29.50
2022-10-22T16:27:25.663Z,35.90
2022-10-22T16:29:53.501Z,38.90
2022-10-22T16:32:21.368Z,34.30
2022-10-22T16:34:49.127Z,27.10
2022-10-22T16:37:17.103Z,25.70
2022-10-22T16:39:44.809Z,28.10
2022-10-22T16:42:12.630Z,27.90
2022-10-22T16:44:40.697Z,29.30
2022-10-22T16:47:08.432Z,26.00
2022-10-22T16:49:36.431Z,25.60
2022-10-22T16:52:04.501Z,25.80
2022-10-22T16:54:32.379Z,25.20
2022-10-22T16:57:00.105Z,26.70
2022-10-22T16:59:27.896Z,24.30
2022-10-22T17:01:55.745Z,28.60
2022-10-22T17:04:23.837Z,28.40
2022-10-22T17:06:51.634Z,29.50
2022-10-22T17:12:46.970Z,25.10
2022-10-22T17:15:15.034Z,22.10
2022-10-22T17:17:43.078Z,24.10
2022-10-22T17:20:11.350Z,23.10
2022-10-22T17:22:39.448Z,23.00
2022-10-22T17:25:22.892Z,25.80
2022-10-22T17:27:51.018Z,22.00
2022-10-22T17:30:23.273Z,24.70
2022-10-22T17:32:55.095Z,23.80
2022-10-22T17:35:22.966Z,25.20
2022-10-22T17:37:50.983Z,25.80
2022-10-22T17:40:18.794Z,29.40
2022-10-22T17:42:46.730Z,27.10
2022-10-22T17:45:15.098Z,28.90
2022-10-22T17:47:43.675Z,29.50
2022-10-22T17:50:11.803Z,25.20
2022-10-22T17:52:39.860Z,26.90
2022-10-22T17:55:08.900Z,27.70
2022-10-22T17:57:36.707Z,27.10
2022-10-22T18:00:05.761Z,32.60
2022-10-22T18:02:33.842Z,29.20
2022-10-22T18:05:01.811Z,27.60
2022-10-22T18:07:29.782Z,30.60
2022-10-22T18:09:57.621Z,27.80
2022-10-22T18:12:25.528Z,30.40
2022-10-22T18:14:53.996Z,30.10
2022-10-22T18:17:21.792Z,32.10
2022-10-22T18:19:49.642Z,28.50
2022-10-22T18:22:17.387Z,31.90
2022-10-22T18:24:45.324Z,32.30
2022-10-22T18:27:13.123Z,34.00
2022-10-22T18:29:40.925Z,32.10
2022-10-22T18:32:13.149Z,26.90
2022-10-22T18:34:41.578Z,32.00
2022-10-22T18:37:09.500Z,25.30
2022-10-22T18:39:37.362Z,32.80
2022-10-22T18:42:07.409Z,31.40
2022-10-22T18:44:35.764Z,26.80
2022-10-22T18:47:03.939Z,34.90
2022-10-22T18:49:32.111Z,31.20
2022-10-22T18:52:00.688Z,28.50
2022-10-22T18:54:28.598Z,36.00
2022-10-22T18:57:02.745Z,35.70
2022-10-22T18:59:31.457Z,35.10
2022-10-22T19:02:00.248Z,33.50
2022-10-22T19:04:33.752Z,34.60
2022-10-22T19:07:03.058Z,23.60
2022-10-22T19:09:31.221Z,28.90
2022-10-22T19:11:59.494Z,34.10
2022-10-22T19:14:27.353Z,28.00
2022-10-22T19:16:55.226Z,25.30
2022-10-22T19:19:23.392Z,25.40
2022-10-22T19:21:51.375Z,23.30
2022-10-22T19:24:20.256Z,27.70
2022-10-22T19:26:48.536Z,23.70
2022-10-22T19:29:17.842Z,23.30
2022-10-22T19:31:46.035Z,21.60
2022-10-22T19:34:13.940Z,20.40
2022-10-22T19:36:41.876Z,19.70
2022-10-22T19:39:09.802Z,22.70
2022-10-22T19:41:37.925Z,20.60
2022-10-22T19:44:05.855Z,22.40
2022-10-22T19:46:33.821Z,20.80
2022-10-22T19:49:04.997Z,22.20
2022-10-22T19:51:35.712Z,25.10
2022-10-22T19:54:07.132Z,26.80
2022-10-22T19:56:35.670Z,24.80
2022-10-22T19:59:05.148Z,25.40
2022-10-22T20:01:33.099Z,23.80
2022-10-22T20:04:01.840Z,28.70
2022-10-22T20:06:30.212Z,27.00
2022-10-22T20:08:58.292Z,29.10
2022-10-22T20:11:28.645Z,30.10
2022-10-22T20:13:57.293Z,28.50
2022-10-22T20:16:28.758Z,30.90
2022-10-22T20:19:01.325Z,27.00
2022-10-22T20:21:29.425Z,31.60
2022-10-22T20:23:57.667Z,26.20
2022-10-22T20:26:28.412Z,28.40
2022-10-22T20:28:56.854Z,31.60
2022-10-22T20:31:27.169Z,28.90
2022-10-22T20:33:59.431Z,30.60
2022-10-22T20:36:27.941Z,32.50
2022-10-22T20:39:06.331Z,30.80
2022-10-22T20:41:35.014Z,38.20
2022-10-22T20:44:02.966Z,35.20
2022-10-22T20:46:32.126Z,33.10
2022-10-22T20:49:19.290Z,26.70
2022-10-22T20:51:47.600Z,32.20
2022-10-22T20:54:15.737Z,34.50
2022-10-22T20:56:44.226Z,25.70
2022-10-22T20:59:12.334Z,31.10
2022-10-22T21:01:47.214Z,35.10
2022-10-22T21:04:15.636Z,32.70
2022-10-22T21:06:43.568Z,31.60
2022-10-22T21:09:13.215Z,26.70
2022-10-22T21:11:42.014Z,38.00
2022-10-22T21:14:11.523Z,32.50
2022-10-22T21:16:44.085Z,32.60
2022-10-22T21:19:12.121Z,33.40
2022-10-22T21:21:40.294Z,35.70
2022-10-22T21:24:08.477Z,36.60
2022-10-22T21:26:38.538Z,35.10
2022-10-22T21:29:07.243Z,34.70
2022-10-22T21:31:35.176Z,36.80
2022-10-22T21:34:03.043Z,36.10
2022-10-22T21:36:30.911Z,39.10
2022-10-22T21:38:58.835Z,34.80
2022-10-22T21:41:26.802Z,32.20
2022-10-22T21:43:54.672Z,33.00
2022-10-22T21:46:24.916Z,37.60
2022-10-22T21:48:54.715Z,32.30
2022-10-22T21:54:44.179Z,43.40
2022-10-22T21:57:12.063Z,40.10
2022-10-22T21:59:40.030Z,41.80
2022-10-22T22:02:07.973Z,39.80
2022-10-22T22:04:37.198Z,33.10
2022-10-22T22:07:05.062Z,45.70
2022-10-22T22:09:36.095Z,40.40
2022-10-22T22:12:04.190Z,36.00
2022-10-22T22:14:33.066Z,39.50
2022-10-22T22:17:00.899Z,41.40
2022-10-22T22:19:28.699Z,40.50
2022-10-22T22:21:56.557Z,36.60
2022-10-22T22:24:25.484Z,38.60
2022-10-22T22:26:53.346Z,41.00
2022-10-22T22:29:21.178Z,39.20
2022-10-22T22:31:49.072Z,36.80
2022-10-22T22:34:17.230Z,40.60
2022-10-22T22:36:46.708Z,41.70
2022-10-22T22:39:17.326Z,39.90
2022-10-22T22:41:45.327Z,44.90
2022-10-22T22:44:13.498Z,36.10
2022-10-22T22:46:41.592Z,40.20
2022-10-22T22:49:09.646Z,41.10
2022-10-22T22:51:37.509Z,40.00
2022-10-22T22:54:05.305Z,40.60
2022-10-22T22:56:34.611Z,43.10
2022-10-22T22:59:03.573Z,41.80
2022-10-22T23:01:38.056Z,40.40
2022-10-22T23:04:19.225Z,45.70
2022-10-22T23:06:47.131Z,45.20
2022-10-22T23:09:16.127Z,44.90
2022-10-22T23:11:44.839Z,44.20
2022-10-22T23:14:14.812Z,50.70
2022-10-22T23:16:48.448Z,42.90
2022-10-22T23:19:19.189Z,40.80
2022-10-22T23:21:49.839Z,47.60
2022-10-22T23:24:20.736Z,53.00
2022-10-22T23:26:49.965Z,55.80
2022-10-22T23:29:20.114Z,51.40
2022-10-22T23:31:48.384Z,57.70
2022-10-22T23:34:21.778Z,46.40
2022-10-22T23:36:49.807Z,52.40
2022-10-22T23:39:19.987Z,51.90
2022-10-22T23:41:47.890Z,51.10
2022-10-22T23:44:15.923Z,46.70
2022-10-22T23:46:43.718Z,54.80
2022-10-22T23:49:11.787Z,52.60
2022-10-22T23:51:39.727Z,48.00
2022-10-22T23:54:11.389Z,40.90
2022-10-22T23:56:39.187Z,51.60
2022-10-22T23:59:07.379Z,55.00
